CYPR/YPR METAR and TAF weather

Enter ICAO airport designator
Station Type Date Time Source
CYPR METAR 2020/07/14 06:00 UTC NOAA

CYPR 140600Z AUTO 15003KT 9SM FEW034 OVC095 14/10 A3016 RMK SLP214


Station Type Date Time Source
CYPR Decoded METAR 2020/07/14 06:00 UTC NOAA

Prince Rupert, B. C., Canada (CYPR) 54-18N 130-26W 34M
Jul 14, 2020 - 02:00 AM EDT / 2020.07.14 0600 UTC
Wind: from the SSE (150 degrees) at 3 MPH (3 KT):0
Visibility: 9 mile(s):0
Sky conditions: overcast
Temperature: 57 F (14 C)
Dew Point: 50 F (10 C)
Relative Humidity: 76%
Pressure (altimeter): 30.16 in. Hg (1021 hPa)
ob: CYPR 140600Z AUTO 15003KT 9SM FEW034 OVC095 14/10 A3016 RMK SLP214
cycle: 6

Station Type Date Time Source
CYPR TAF 2020/07/14 01:42 UTC NOAA

TAF TAF CYPR 140039Z 1401/1413 25005KT P6SM SCT060 BKN120
FM140300 VRB03KT P6SM SCT030 BKN080
TEMPO 1403/1413 P6SM -RA BKN020 OVC060
BECMG 1407/1409 15008KT
RMK FCST BASED ON AUTO OBS. NXT FCST BY 140700Z

Example: see airport list